sensor_id;sensor_type;location;lat;lon;timestamp;P1;durP1;ratioP1;P2;durP2;ratioP2
16310;SDS011;8264;48.510;8.872;2022-08-20T00:01:44;2.77;;;1.70;;
16310;SDS011;8264;48.510;8.872;2022-08-20T00:04:10;2.13;;;1.73;;
16310;SDS011;8264;48.510;8.872;2022-08-20T00:06:37;4.53;;;1.83;;
16310;SDS011;8264;48.510;8.872;2022-08-20T00:09:04;3.07;;;1.67;;
16310;SDS011;8264;48.510;8.872;2022-08-20T00:11:31;3.83;;;1.97;;
16310;SDS011;8264;48.510;8.872;2022-08-20T00:14:01;1.80;;;1.70;;
16310;SDS011;8264;48.510;8.872;2022-08-20T00:16:31;1.80;;;1.70;;
16310;SDS011;8264;48.510;8.872;2022-08-20T00:19:02;2.10;;;1.90;;
16310;SDS011;8264;48.510;8.872;2022-08-20T00:21:29;1.77;;;1.67;;
16310;SDS011;8264;48.510;8.872;2022-08-20T00:23:56;2.00;;;1.80;;
16310;SDS011;8264;48.510;8.872;2022-08-20T00:26:23;2.13;;;1.83;;
16310;SDS011;8264;48.510;8.872;2022-08-20T00:28:50;3.37;;;1.70;;
16310;SDS011;8264;48.510;8.872;2022-08-20T00:31:19;2.20;;;1.73;;
16310;SDS011;8264;48.510;8.872;2022-08-20T00:33:47;3.50;;;2.00;;
16310;SDS011;8264;48.510;8.872;2022-08-20T00:36:14;2.93;;;1.73;;
16310;SDS011;8264;48.510;8.872;2022-08-20T00:38:42;1.90;;;1.60;;
16310;SDS011;8264;48.510;8.872;2022-08-20T00:41:11;2.50;;;1.70;;
16310;SDS011;8264;48.510;8.872;2022-08-20T00:43:39;2.27;;;1.60;;
16310;SDS011;8264;48.510;8.872;2022-08-20T00:46:08;2.97;;;1.67;;
16310;SDS011;8264;48.510;8.872;2022-08-20T00:48:40;1.70;;;1.50;;
16310;SDS011;8264;48.510;8.872;2022-08-20T00:51:09;3.03;;;2.00;;
16310;SDS011;8264;48.510;8.872;2022-08-20T00:53:39;2.10;;;1.67;;
16310;SDS011;8264;48.510;8.872;2022-08-20T00:56:06;2.03;;;1.83;;
16310;SDS011;8264;48.510;8.872;2022-08-20T00:58:33;3.53;;;1.70;;
16310;SDS011;8264;48.510;8.872;2022-08-20T01:01:02;3.27;;;1.83;;
16310;SDS011;8264;48.510;8.872;2022-08-20T01:03:30;2.03;;;1.70;;
16310;SDS011;8264;48.510;8.872;2022-08-20T01:05:58;4.17;;;1.90;;
16310;SDS011;8264;48.510;8.872;2022-08-20T01:08:25;1.50;;;1.33;;
16310;SDS011;8264;48.510;8.872;2022-08-20T01:10:51;4.00;;;1.80;;
16310;SDS011;8264;48.510;8.872;2022-08-20T01:13:32;2.33;;;1.63;;
16310;SDS011;8264;48.510;8.872;2022-08-20T01:16:01;3.37;;;1.93;;
16310;SDS011;8264;48.510;8.872;2022-08-20T01:18:29;2.33;;;1.83;;
16310;SDS011;8264;48.510;8.872;2022-08-20T01:20:57;1.90;;;1.70;;
16310;SDS011;8264;48.510;8.872;2022-08-20T01:23:28;2.40;;;1.90;;
16310;SDS011;8264;48.510;8.872;2022-08-20T01:26:00;1.73;;;1.63;;
16310;SDS011;8264;48.510;8.872;2022-08-20T01:28:32;2.83;;;1.63;;
16310;SDS011;8264;48.510;8.872;2022-08-20T01:31:01;3.33;;;1.83;;
16310;SDS011;8264;48.510;8.872;2022-08-20T01:33:28;1.87;;;1.60;;
16310;SDS011;8264;48.510;8.872;2022-08-20T01:35:54;1.97;;;1.83;;
16310;SDS011;8264;48.510;8.872;2022-08-20T01:38:21;2.97;;;2.03;;
16310;SDS011;8264;48.510;8.872;2022-08-20T01:40:54;2.00;;;1.80;;
16310;SDS011;8264;48.510;8.872;2022-08-20T01:43:26;3.07;;;1.80;;
16310;SDS011;8264;48.510;8.872;2022-08-20T01:45:53;3.03;;;1.80;;
16310;SDS011;8264;48.510;8.872;2022-08-20T01:48:20;2.90;;;2.00;;
16310;SDS011;8264;48.510;8.872;2022-08-20T01:50:50;2.07;;;1.90;;
16310;SDS011;8264;48.510;8.872;2022-08-20T01:53:20;2.47;;;2.27;;
16310;SDS011;8264;48.510;8.872;2022-08-20T01:55:50;2.47;;;1.93;;
16310;SDS011;8264;48.510;8.872;2022-08-20T01:58:17;2.33;;;1.70;;
16310;SDS011;8264;48.510;8.872;2022-08-20T02:00:45;3.30;;;2.10;;
16310;SDS011;8264;48.510;8.872;2022-08-20T02:03:12;2.37;;;1.70;;
16310;SDS011;8264;48.510;8.872;2022-08-20T02:05:38;3.00;;;2.00;;
16310;SDS011;8264;48.510;8.872;2022-08-20T02:08:05;2.67;;;2.07;;
16310;SDS011;8264;48.510;8.872;2022-08-20T02:10:31;3.70;;;2.00;;
16310;SDS011;8264;48.510;8.872;2022-08-20T02:12:58;3.27;;;2.20;;
16310;SDS011;8264;48.510;8.872;2022-08-20T02:15:24;2.07;;;1.97;;
16310;SDS011;8264;48.510;8.872;2022-08-20T02:17:52;2.77;;;2.17;;
16310;SDS011;8264;48.510;8.872;2022-08-20T02:20:19;2.43;;;2.17;;
16310;SDS011;8264;48.510;8.872;2022-08-20T02:22:50;2.60;;;2.10;;
16310;SDS011;8264;48.510;8.872;2022-08-20T02:25:19;3.50;;;2.13;;
16310;SDS011;8264;48.510;8.872;2022-08-20T02:27:49;2.17;;;1.83;;
16310;SDS011;8264;48.510;8.872;2022-08-20T02:30:18;2.43;;;2.13;;
16310;SDS011;8264;48.510;8.872;2022-08-20T02:32:46;2.83;;;1.83;;
16310;SDS011;8264;48.510;8.872;2022-08-20T02:35:14;3.07;;;2.00;;
16310;SDS011;8264;48.510;8.872;2022-08-20T02:37:41;2.30;;;2.10;;
16310;SDS011;8264;48.510;8.872;2022-08-20T02:40:10;2.10;;;1.90;;
16310;SDS011;8264;48.510;8.872;2022-08-20T02:42:38;3.10;;;2.43;;
16310;SDS011;8264;48.510;8.872;2022-08-20T02:45:06;3.43;;;2.13;;
16310;SDS011;8264;48.510;8.872;2022-08-20T02:47:35;1.87;;;1.77;;
16310;SDS011;8264;48.510;8.872;2022-08-20T02:50:03;2.53;;;2.27;;
16310;SDS011;8264;48.510;8.872;2022-08-20T02:52:32;2.50;;;2.30;;
16310;SDS011;8264;48.510;8.872;2022-08-20T02:54:58;3.73;;;1.90;;
16310;SDS011;8264;48.510;8.872;2022-08-20T02:57:24;3.00;;;2.17;;
16310;SDS011;8264;48.510;8.872;2022-08-20T02:59:53;2.30;;;2.10;;
16310;SDS011;8264;48.510;8.872;2022-08-20T03:02:20;2.30;;;2.10;;
16310;SDS011;8264;48.510;8.872;2022-08-20T03:04:47;2.47;;;2.23;;
16310;SDS011;8264;48.510;8.872;2022-08-20T03:07:13;2.40;;;2.00;;
16310;SDS011;8264;48.510;8.872;2022-08-20T03:09:41;2.47;;;2.27;;
16310;SDS011;8264;48.510;8.872;2022-08-20T03:12:07;3.10;;;2.10;;
16310;SDS011;8264;48.510;8.872;2022-08-20T03:14:34;2.40;;;2.20;;
16310;SDS011;8264;48.510;8.872;2022-08-20T03:17:02;3.03;;;2.17;;
16310;SDS011;8264;48.510;8.872;2022-08-20T03:19:29;2.60;;;2.40;;
16310;SDS011;8264;48.510;8.872;2022-08-20T03:21:55;2.37;;;2.10;;
16310;SDS011;8264;48.510;8.872;2022-08-20T03:24:22;8.67;;;2.47;;
16310;SDS011;8264;48.510;8.872;2022-08-20T03:26:49;2.97;;;2.40;;
16310;SDS011;8264;48.510;8.872;2022-08-20T03:29:16;2.83;;;2.10;;
16310;SDS011;8264;48.510;8.872;2022-08-20T03:31:42;2.47;;;2.27;;
16310;SDS011;8264;48.510;8.872;2022-08-20T03:34:09;2.33;;;2.13;;
16310;SDS011;8264;48.510;8.872;2022-08-20T03:36:36;3.00;;;2.33;;
16310;SDS011;8264;48.510;8.872;2022-08-20T03:39:04;2.97;;;2.70;;
16310;SDS011;8264;48.510;8.872;2022-08-20T03:41:35;2.83;;;2.63;;
16310;SDS011;8264;48.510;8.872;2022-08-20T03:44:02;3.10;;;2.80;;
16310;SDS011;8264;48.510;8.872;2022-08-20T03:46:30;3.40;;;2.90;;
16310;SDS011;8264;48.510;8.872;2022-08-20T03:48:56;5.07;;;3.40;;
16310;SDS011;8264;48.510;8.872;2022-08-20T03:51:22;4.00;;;3.30;;
16310;SDS011;8264;48.510;8.872;2022-08-20T03:53:49;4.00;;;3.63;;
16310;SDS011;8264;48.510;8.872;2022-08-20T03:56:15;4.00;;;3.63;;
16310;SDS011;8264;48.510;8.872;2022-08-20T03:58:42;4.17;;;3.77;;
16310;SDS011;8264;48.510;8.872;2022-08-20T04:01:10;4.20;;;3.80;;
16310;SDS011;8264;48.510;8.872;2022-08-20T04:03:36;4.33;;;3.47;;
16310;SDS011;8264;48.510;8.872;2022-08-20T04:06:03;4.27;;;3.87;;
16310;SDS011;8264;48.510;8.872;2022-08-20T04:08:29;4.47;;;4.07;;
16310;SDS011;8264;48.510;8.872;2022-08-20T04:10:57;5.63;;;4.70;;
16310;SDS011;8264;48.510;8.872;2022-08-20T04:13:24;6.73;;;4.10;;
16310;SDS011;8264;48.510;8.872;2022-08-20T04:15:51;4.23;;;3.87;;
16310;SDS011;8264;48.510;8.872;2022-08-20T04:18:21;4.90;;;3.90;;
16310;SDS011;8264;48.510;8.872;2022-08-20T04:20:50;8.87;;;4.53;;
16310;SDS011;8264;48.510;8.872;2022-08-20T04:23:17;4.43;;;4.13;;
16310;SDS011;8264;48.510;8.872;2022-08-20T04:25:45;5.10;;;4.10;;
16310;SDS011;8264;48.510;8.872;2022-08-20T04:28:12;4.80;;;4.27;;
16310;SDS011;8264;48.510;8.872;2022-08-20T04:30:40;5.07;;;4.47;;
16310;SDS011;8264;48.510;8.872;2022-08-20T04:33:07;4.60;;;4.20;;
16310;SDS011;8264;48.510;8.872;2022-08-20T04:35:35;4.50;;;4.10;;
16310;SDS011;8264;48.510;8.872;2022-08-20T04:38:03;6.10;;;4.47;;
16310;SDS011;8264;48.510;8.872;2022-08-20T04:40:32;5.13;;;4.63;;
16310;SDS011;8264;48.510;8.872;2022-08-20T04:43:16;4.23;;;3.93;;
16310;SDS011;8264;48.510;8.872;2022-08-20T04:45:43;4.50;;;4.10;;
16310;SDS011;8264;48.510;8.872;2022-08-20T04:48:11;5.43;;;4.93;;
16310;SDS011;8264;48.510;8.872;2022-08-20T04:50:40;4.73;;;4.33;;
16310;SDS011;8264;48.510;8.872;2022-08-20T04:53:09;4.83;;;4.43;;
16310;SDS011;8264;48.510;8.872;2022-08-20T04:55:37;4.10;;;3.80;;
16310;SDS011;8264;48.510;8.872;2022-08-20T04:58:07;4.57;;;4.17;;
16310;SDS011;8264;48.510;8.872;2022-08-20T05:00:35;7.53;;;3.87;;
16310;SDS011;8264;48.510;8.872;2022-08-20T05:03:02;4.53;;;4.13;;
16310;SDS011;8264;48.510;8.872;2022-08-20T05:05:30;6.80;;;4.60;;
16310;SDS011;8264;48.510;8.872;2022-08-20T05:08:00;4.50;;;4.10;;
16310;SDS011;8264;48.510;8.872;2022-08-20T05:10:27;4.60;;;4.10;;
16310;SDS011;8264;48.510;8.872;2022-08-20T05:12:54;5.03;;;4.57;;
16310;SDS011;8264;48.510;8.872;2022-08-20T05:15:21;5.60;;;4.13;;
16310;SDS011;8264;48.510;8.872;2022-08-20T05:17:53;4.13;;;3.83;;
16310;SDS011;8264;48.510;8.872;2022-08-20T05:20:21;6.07;;;4.27;;
16310;SDS011;8264;48.510;8.872;2022-08-20T05:22:48;4.90;;;4.43;;
16310;SDS011;8264;48.510;8.872;2022-08-20T05:25:16;5.83;;;4.57;;
16310;SDS011;8264;48.510;8.872;2022-08-20T05:27:43;4.27;;;3.87;;
16310;SDS011;8264;48.510;8.872;2022-08-20T05:30:10;5.27;;;4.50;;
16310;SDS011;8264;48.510;8.872;2022-08-20T05:32:37;5.43;;;4.23;;
16310;SDS011;8264;48.510;8.872;2022-08-20T05:35:04;4.97;;;4.57;;
16310;SDS011;8264;48.510;8.872;2022-08-20T05:37:33;4.50;;;4.20;;
16310;SDS011;8264;48.510;8.872;2022-08-20T05:40:00;6.90;;;4.73;;
16310;SDS011;8264;48.510;8.872;2022-08-20T05:42:27;4.60;;;4.13;;
16310;SDS011;8264;48.510;8.872;2022-08-20T05:44:54;5.53;;;5.00;;
16310;SDS011;8264;48.510;8.872;2022-08-20T05:47:21;6.10;;;4.80;;
16310;SDS011;8264;48.510;8.872;2022-08-20T05:49:52;5.33;;;4.63;;
16310;SDS011;8264;48.510;8.872;2022-08-20T05:52:19;5.93;;;4.83;;
16310;SDS011;8264;48.510;8.872;2022-08-20T05:54:45;4.80;;;4.30;;
16310;SDS011;8264;48.510;8.872;2022-08-20T05:57:12;5.43;;;4.93;;
16310;SDS011;8264;48.510;8.872;2022-08-20T05:59:44;4.60;;;4.27;;
16310;SDS011;8264;48.510;8.872;2022-08-20T06:02:11;4.90;;;4.50;;
16310;SDS011;8264;48.510;8.872;2022-08-20T06:04:51;5.90;;;4.40;;
16310;SDS011;8264;48.510;8.872;2022-08-20T06:07:18;4.97;;;4.57;;
16310;SDS011;8264;48.510;8.872;2022-08-20T06:09:44;5.17;;;4.67;;
16310;SDS011;8264;48.510;8.872;2022-08-20T06:12:11;5.77;;;5.27;;
16310;SDS011;8264;48.510;8.872;2022-08-20T06:14:37;5.13;;;4.63;;
16310;SDS011;8264;48.510;8.872;2022-08-20T06:17:06;7.60;;;3.87;;
16310;SDS011;8264;48.510;8.872;2022-08-20T06:19:34;4.93;;;4.43;;
16310;SDS011;8264;48.510;8.872;2022-08-20T06:22:02;11.77;;;5.03;;
16310;SDS011;8264;48.510;8.872;2022-08-20T06:24:29;5.07;;;4.53;;
16310;SDS011;8264;48.510;8.872;2022-08-20T06:26:56;4.97;;;4.47;;
16310;SDS011;8264;48.510;8.872;2022-08-20T06:29:24;4.40;;;4.10;;
16310;SDS011;8264;48.510;8.872;2022-08-20T06:31:51;5.27;;;4.83;;
16310;SDS011;8264;48.510;8.872;2022-08-20T06:34:19;7.23;;;4.77;;
16310;SDS011;8264;48.510;8.872;2022-08-20T06:36:45;8.27;;;4.50;;
16310;SDS011;8264;48.510;8.872;2022-08-20T06:39:12;6.57;;;5.70;;
16310;SDS011;8264;48.510;8.872;2022-08-20T06:41:38;7.70;;;5.07;;
16310;SDS011;8264;48.510;8.872;2022-08-20T06:44:05;4.67;;;4.27;;
16310;SDS011;8264;48.510;8.872;2022-08-20T06:46:32;7.77;;;4.83;;
16310;SDS011;8264;48.510;8.872;2022-08-20T06:48:59;4.87;;;4.43;;
16310;SDS011;8264;48.510;8.872;2022-08-20T06:51:27;5.17;;;4.50;;
16310;SDS011;8264;48.510;8.872;2022-08-20T06:53:53;5.40;;;4.90;;
16310;SDS011;8264;48.510;8.872;2022-08-20T06:56:20;4.97;;;4.40;;
16310;SDS011;8264;48.510;8.872;2022-08-20T06:58:46;5.20;;;4.53;;
16310;SDS011;8264;48.510;8.872;2022-08-20T07:01:13;4.87;;;4.47;;
16310;SDS011;8264;48.510;8.872;2022-08-20T07:03:44;4.80;;;4.17;;
16310;SDS011;8264;48.510;8.872;2022-08-20T07:06:12;4.77;;;4.37;;
16310;SDS011;8264;48.510;8.872;2022-08-20T07:08:41;5.37;;;4.67;;
16310;SDS011;8264;48.510;8.872;2022-08-20T07:11:08;5.47;;;4.97;;
16310;SDS011;8264;48.510;8.872;2022-08-20T07:13:34;6.20;;;4.70;;
16310;SDS011;8264;48.510;8.872;2022-08-20T07:16:02;4.90;;;4.40;;
16310;SDS011;8264;48.510;8.872;2022-08-20T07:18:28;5.17;;;4.10;;
16310;SDS011;8264;48.510;8.872;2022-08-20T07:20:55;6.57;;;4.60;;
16310;SDS011;8264;48.510;8.872;2022-08-20T07:23:21;4.67;;;4.27;;
16310;SDS011;8264;48.510;8.872;2022-08-20T07:25:49;4.87;;;4.47;;
16310;SDS011;8264;48.510;8.872;2022-08-20T07:28:17;4.73;;;4.33;;
16310;SDS011;8264;48.510;8.872;2022-08-20T07:30:45;5.50;;;4.20;;
16310;SDS011;8264;48.510;8.872;2022-08-20T07:33:29;4.60;;;4.20;;
16310;SDS011;8264;48.510;8.872;2022-08-20T07:35:56;4.40;;;4.00;;
16310;SDS011;8264;48.510;8.872;2022-08-20T07:38:24;4.90;;;4.40;;
16310;SDS011;8264;48.510;8.872;2022-08-20T07:40:54;7.77;;;4.80;;
16310;SDS011;8264;48.510;8.872;2022-08-20T07:43:22;5.80;;;5.10;;
16310;SDS011;8264;48.510;8.872;2022-08-20T07:45:49;4.63;;;4.20;;
16310;SDS011;8264;48.510;8.872;2022-08-20T07:48:16;22.03;;;19.77;;
16310;SDS011;8264;48.510;8.872;2022-08-20T07:50:42;16.40;;;10.40;;
16310;SDS011;8264;48.510;8.872;2022-08-20T07:53:09;9.63;;;8.60;;
16310;SDS011;8264;48.510;8.872;2022-08-20T07:55:37;49.60;;;11.13;;
16310;SDS011;8264;48.510;8.872;2022-08-20T07:58:07;15.70;;;6.87;;
16310;SDS011;8264;48.510;8.872;2022-08-20T08:00:35;6.07;;;4.93;;
16310;SDS011;8264;48.510;8.872;2022-08-20T08:03:02;7.97;;;5.83;;
16310;SDS011;8264;48.510;8.872;2022-08-20T08:05:29;6.83;;;5.83;;
16310;SDS011;8264;48.510;8.872;2022-08-20T08:07:56;6.50;;;6.00;;
16310;SDS011;8264;48.510;8.872;2022-08-20T08:10:23;6.40;;;5.90;;
16310;SDS011;8264;48.510;8.872;2022-08-20T08:12:51;5.90;;;5.40;;
16310;SDS011;8264;48.510;8.872;2022-08-20T08:15:21;5.50;;;4.93;;
16310;SDS011;8264;48.510;8.872;2022-08-20T08:17:51;8.00;;;5.40;;
16310;SDS011;8264;48.510;8.872;2022-08-20T08:20:21;5.80;;;4.57;;
16310;SDS011;8264;48.510;8.872;2022-08-20T08:22:48;6.93;;;4.97;;
16310;SDS011;8264;48.510;8.872;2022-08-20T08:25:15;4.97;;;4.53;;
16310;SDS011;8264;48.510;8.872;2022-08-20T08:27:41;9.43;;;4.73;;
16310;SDS011;8264;48.510;8.872;2022-08-20T08:30:09;5.20;;;4.70;;
16310;SDS011;8264;48.510;8.872;2022-08-20T08:32:38;4.80;;;4.40;;
16310;SDS011;8264;48.510;8.872;2022-08-20T08:35:25;4.67;;;3.70;;
16310;SDS011;8264;48.510;8.872;2022-08-20T08:37:52;4.93;;;4.43;;
16310;SDS011;8264;48.510;8.872;2022-08-20T08:40:18;4.23;;;3.87;;
16310;SDS011;8264;48.510;8.872;2022-08-20T08:42:47;5.13;;;4.33;;
16310;SDS011;8264;48.510;8.872;2022-08-20T08:45:19;4.60;;;4.20;;
16310;SDS011;8264;48.510;8.872;2022-08-20T08:47:47;4.30;;;3.90;;
16310;SDS011;8264;48.510;8.872;2022-08-20T08:50:16;4.17;;;3.77;;
16310;SDS011;8264;48.510;8.872;2022-08-20T08:52:46;5.20;;;4.10;;
16310;SDS011;8264;48.510;8.872;2022-08-20T08:55:15;4.80;;;3.70;;
16310;SDS011;8264;48.510;8.872;2022-08-20T08:57:45;6.30;;;4.40;;
16310;SDS011;8264;48.510;8.872;2022-08-20T09:00:21;4.53;;;4.13;;
16310;SDS011;8264;48.510;8.872;2022-08-20T09:02:55;5.50;;;4.43;;
16310;SDS011;8264;48.510;8.872;2022-08-20T09:05:26;4.03;;;3.63;;
16310;SDS011;8264;48.510;8.872;2022-08-20T09:07:56;4.27;;;3.87;;
16310;SDS011;8264;48.510;8.872;2022-08-20T09:10:23;4.23;;;3.50;;
16310;SDS011;8264;48.510;8.872;2022-08-20T09:12:50;3.73;;;3.43;;
16310;SDS011;8264;48.510;8.872;2022-08-20T09:15:17;3.53;;;2.87;;
16310;SDS011;8264;48.510;8.872;2022-08-20T09:17:45;3.53;;;3.23;;
16310;SDS011;8264;48.510;8.872;2022-08-20T09:20:12;5.33;;;3.23;;
16310;SDS011;8264;48.510;8.872;2022-08-20T09:22:39;5.90;;;3.00;;
16310;SDS011;8264;48.510;8.872;2022-08-20T09:25:06;3.13;;;2.90;;
16310;SDS011;8264;48.510;8.872;2022-08-20T09:27:33;3.13;;;2.00;;
16310;SDS011;8264;48.510;8.872;2022-08-20T09:30:00;1.43;;;1.33;;
16310;SDS011;8264;48.510;8.872;2022-08-20T09:32:26;2.80;;;1.33;;
16310;SDS011;8264;48.510;8.872;2022-08-20T09:34:53;3.23;;;1.30;;
16310;SDS011;8264;48.510;8.872;2022-08-20T09:37:22;1.50;;;1.40;;
16310;SDS011;8264;48.510;8.872;2022-08-20T09:39:49;1.50;;;1.40;;
16310;SDS011;8264;48.510;8.872;2022-08-20T09:42:16;2.23;;;1.50;;
16310;SDS011;8264;48.510;8.872;2022-08-20T09:44:44;2.17;;;1.50;;
16310;SDS011;8264;48.510;8.872;2022-08-20T09:47:11;2.20;;;1.50;;
16310;SDS011;8264;48.510;8.872;2022-08-20T09:49:38;3.30;;;1.97;;
16310;SDS011;8264;48.510;8.872;2022-08-20T09:52:06;2.87;;;1.73;;
16310;SDS011;8264;48.510;8.872;2022-08-20T09:54:35;2.00;;;1.77;;
16310;SDS011;8264;48.510;8.872;2022-08-20T09:57:03;1.80;;;1.70;;
16310;SDS011;8264;48.510;8.872;2022-08-20T09:59:32;1.80;;;1.70;;
16310;SDS011;8264;48.510;8.872;2022-08-20T10:01:58;2.27;;;2.07;;
16310;SDS011;8264;48.510;8.872;2022-08-20T10:04:25;2.80;;;2.33;;
16310;SDS011;8264;48.510;8.872;2022-08-20T10:06:51;2.40;;;2.20;;
16310;SDS011;8264;48.510;8.872;2022-08-20T10:09:18;2.87;;;1.90;;
16310;SDS011;8264;48.510;8.872;2022-08-20T10:11:46;2.07;;;1.87;;
16310;SDS011;8264;48.510;8.872;2022-08-20T10:14:12;1.83;;;1.70;;
16310;SDS011;8264;48.510;8.872;2022-08-20T10:16:39;17.80;;;3.17;;
16310;SDS011;8264;48.510;8.872;2022-08-20T10:19:05;24.43;;;4.50;;
16310;SDS011;8264;48.510;8.872;2022-08-20T10:21:32;14.63;;;3.50;;
16310;SDS011;8264;48.510;8.872;2022-08-20T10:23:59;9.97;;;4.03;;
16310;SDS011;8264;48.510;8.872;2022-08-20T10:26:25;11.50;;;3.40;;
16310;SDS011;8264;48.510;8.872;2022-08-20T10:28:53;9.20;;;3.10;;
16310;SDS011;8264;48.510;8.872;2022-08-20T10:31:20;12.57;;;3.43;;
16310;SDS011;8264;48.510;8.872;2022-08-20T10:33:46;6.33;;;2.57;;
16310;SDS011;8264;48.510;8.872;2022-08-20T10:36:14;2.83;;;2.00;;
16310;SDS011;8264;48.510;8.872;2022-08-20T10:38:41;4.90;;;2.03;;
16310;SDS011;8264;48.510;8.872;2022-08-20T10:41:09;4.70;;;1.87;;
16310;SDS011;8264;48.510;8.872;2022-08-20T10:43:35;5.20;;;1.70;;
16310;SDS011;8264;48.510;8.872;2022-08-20T10:46:03;2.70;;;1.83;;
16310;SDS011;8264;48.510;8.872;2022-08-20T10:48:30;2.87;;;1.50;;
16310;SDS011;8264;48.510;8.872;2022-08-20T10:50:57;4.83;;;2.33;;
16310;SDS011;8264;48.510;8.872;2022-08-20T10:53:24;2.93;;;2.10;;
16310;SDS011;8264;48.510;8.872;2022-08-20T10:55:51;4.37;;;2.07;;
16310;SDS011;8264;48.510;8.872;2022-08-20T10:58:18;3.97;;;2.07;;
16310;SDS011;8264;48.510;8.872;2022-08-20T11:00:45;3.63;;;2.20;;
16310;SDS011;8264;48.510;8.872;2022-08-20T11:03:12;3.50;;;2.00;;
16310;SDS011;8264;48.510;8.872;2022-08-20T11:05:39;3.00;;;1.90;;
16310;SDS011;8264;48.510;8.872;2022-08-20T11:08:05;3.60;;;2.40;;
16310;SDS011;8264;48.510;8.872;2022-08-20T11:10:32;4.40;;;2.17;;
16310;SDS011;8264;48.510;8.872;2022-08-20T11:13:00;3.67;;;2.27;;
16310;SDS011;8264;48.510;8.872;2022-08-20T11:15:27;2.23;;;2.00;;
16310;SDS011;8264;48.510;8.872;2022-08-20T11:17:54;2.80;;;2.17;;
16310;SDS011;8264;48.510;8.872;2022-08-20T11:20:22;3.87;;;2.03;;
16310;SDS011;8264;48.510;8.872;2022-08-20T11:22:50;2.87;;;2.27;;
16310;SDS011;8264;48.510;8.872;2022-08-20T11:25:17;2.77;;;2.47;;
16310;SDS011;8264;48.510;8.872;2022-08-20T11:27:45;3.50;;;2.03;;
16310;SDS011;8264;48.510;8.872;2022-08-20T11:30:13;3.53;;;2.00;;
16310;SDS011;8264;48.510;8.872;2022-08-20T11:32:45;2.50;;;2.03;;
16310;SDS011;8264;48.510;8.872;2022-08-20T11:35:11;2.50;;;0.90;;
16310;SDS011;8264;48.510;8.872;2022-08-20T11:37:40;1.10;;;0.70;;
16310;SDS011;8264;48.510;8.872;2022-08-20T11:40:07;1.80;;;0.90;;
16310;SDS011;8264;48.510;8.872;2022-08-20T11:42:35;1.50;;;1.10;;
16310;SDS011;8264;48.510;8.872;2022-08-20T11:45:02;1.90;;;1.10;;
16310;SDS011;8264;48.510;8.872;2022-08-20T11:47:29;3.73;;;1.30;;
16310;SDS011;8264;48.510;8.872;2022-08-20T11:49:58;4.90;;;1.43;;
16310;SDS011;8264;48.510;8.872;2022-08-20T11:52:26;3.20;;;1.53;;
16310;SDS011;8264;48.510;8.872;2022-08-20T11:54:54;2.67;;;1.47;;
16310;SDS011;8264;48.510;8.872;2022-08-20T11:57:21;2.63;;;1.50;;
16310;SDS011;8264;48.510;8.872;2022-08-20T11:59:48;2.63;;;1.23;;
16310;SDS011;8264;48.510;8.872;2022-08-20T12:02:15;1.40;;;0.90;;
16310;SDS011;8264;48.510;8.872;2022-08-20T12:04:42;1.57;;;0.83;;
16310;SDS011;8264;48.510;8.872;2022-08-20T12:07:09;0.87;;;0.77;;
16310;SDS011;8264;48.510;8.872;2022-08-20T12:09:36;2.03;;;1.20;;
16310;SDS011;8264;48.510;8.872;2022-08-20T12:12:05;1.63;;;0.90;;
16310;SDS011;8264;48.510;8.872;2022-08-20T12:14:32;1.30;;;0.90;;
16310;SDS011;8264;48.510;8.872;2022-08-20T12:17:06;2.33;;;1.10;;
16310;SDS011;8264;48.510;8.872;2022-08-20T12:19:35;2.33;;;1.00;;
16310;SDS011;8264;48.510;8.872;2022-08-20T12:22:02;1.80;;;0.80;;
16310;SDS011;8264;48.510;8.872;2022-08-20T12:24:28;0.80;;;0.80;;
16310;SDS011;8264;48.510;8.872;2022-08-20T12:26:55;1.13;;;1.00;;
16310;SDS011;8264;48.510;8.872;2022-08-20T12:29:22;1.10;;;0.80;;
16310;SDS011;8264;48.510;8.872;2022-08-20T12:31:50;1.00;;;0.87;;
16310;SDS011;8264;48.510;8.872;2022-08-20T12:34:16;1.80;;;1.00;;
16310;SDS011;8264;48.510;8.872;2022-08-20T12:36:42;0.70;;;0.70;;
16310;SDS011;8264;48.510;8.872;2022-08-20T12:39:09;1.50;;;1.07;;
16310;SDS011;8264;48.510;8.872;2022-08-20T12:41:36;0.70;;;0.70;;
16310;SDS011;8264;48.510;8.872;2022-08-20T12:44:02;1.17;;;0.77;;
16310;SDS011;8264;48.510;8.872;2022-08-20T12:48:59;0.93;;;0.77;;
16310;SDS011;8264;48.510;8.872;2022-08-20T12:51:26;0.70;;;0.70;;
16310;SDS011;8264;48.510;8.872;2022-08-20T12:53:52;0.70;;;0.70;;
16310;SDS011;8264;48.510;8.872;2022-08-20T12:56:19;1.20;;;0.90;;
16310;SDS011;8264;48.510;8.872;2022-08-20T12:58:45;2.50;;;0.80;;
16310;SDS011;8264;48.510;8.872;2022-08-20T13:01:12;0.80;;;0.80;;
16310;SDS011;8264;48.510;8.872;2022-08-20T13:03:41;0.70;;;0.70;;
16310;SDS011;8264;48.510;8.872;2022-08-20T13:06:07;0.93;;;0.70;;
16310;SDS011;8264;48.510;8.872;2022-08-20T13:08:33;0.63;;;0.63;;
16310;SDS011;8264;48.510;8.872;2022-08-20T13:11:00;1.53;;;0.80;;
16310;SDS011;8264;48.510;8.872;2022-08-20T13:13:26;0.80;;;0.80;;
16310;SDS011;8264;48.510;8.872;2022-08-20T13:15:53;1.30;;;0.90;;
16310;SDS011;8264;48.510;8.872;2022-08-20T13:18:19;0.83;;;0.83;;
16310;SDS011;8264;48.510;8.872;2022-08-20T13:20:47;1.90;;;1.07;;
16310;SDS011;8264;48.510;8.872;2022-08-20T13:23:14;2.13;;;1.10;;
16310;SDS011;8264;48.510;8.872;2022-08-20T13:25:40;1.87;;;1.20;;
16310;SDS011;8264;48.510;8.872;2022-08-20T13:28:07;1.20;;;0.77;;
16310;SDS011;8264;48.510;8.872;2022-08-20T13:30:33;1.20;;;1.00;;
16310;SDS011;8264;48.510;8.872;2022-08-20T13:33:01;2.47;;;0.73;;
16310;SDS011;8264;48.510;8.872;2022-08-20T13:35:28;1.10;;;0.97;;
16310;SDS011;8264;48.510;8.872;2022-08-20T13:37:56;1.00;;;0.80;;
16310;SDS011;8264;48.510;8.872;2022-08-20T13:40:23;0.83;;;0.80;;
16310;SDS011;8264;48.510;8.872;2022-08-20T13:42:49;0.90;;;0.73;;
16310;SDS011;8264;48.510;8.872;2022-08-20T13:45:16;0.80;;;0.70;;
16310;SDS011;8264;48.510;8.872;2022-08-20T13:47:43;1.90;;;0.67;;
16310;SDS011;8264;48.510;8.872;2022-08-20T13:50:10;2.00;;;0.70;;
16310;SDS011;8264;48.510;8.872;2022-08-20T13:52:37;0.90;;;0.70;;
16310;SDS011;8264;48.510;8.872;2022-08-20T13:55:06;0.83;;;0.80;;
16310;SDS011;8264;48.510;8.872;2022-08-20T13:57:34;1.47;;;0.80;;
16310;SDS011;8264;48.510;8.872;2022-08-20T14:00:01;1.17;;;0.73;;
16310;SDS011;8264;48.510;8.872;2022-08-20T14:02:30;0.73;;;0.73;;
16310;SDS011;8264;48.510;8.872;2022-08-20T14:04:57;1.03;;;0.80;;
16310;SDS011;8264;48.510;8.872;2022-08-20T14:07:24;1.03;;;0.70;;
16310;SDS011;8264;48.510;8.872;2022-08-20T14:09:53;0.77;;;0.60;;
16310;SDS011;8264;48.510;8.872;2022-08-20T14:12:23;1.80;;;0.80;;
16310;SDS011;8264;48.510;8.872;2022-08-20T14:14:51;1.37;;;0.70;;
16310;SDS011;8264;48.510;8.872;2022-08-20T14:17:19;1.17;;;0.67;;
16310;SDS011;8264;48.510;8.872;2022-08-20T14:19:48;0.50;;;0.50;;
16310;SDS011;8264;48.510;8.872;2022-08-20T14:22:15;0.50;;;0.50;;
16310;SDS011;8264;48.510;8.872;2022-08-20T14:24:42;1.93;;;0.57;;
16310;SDS011;8264;48.510;8.872;2022-08-20T14:27:09;0.80;;;0.70;;
16310;SDS011;8264;48.510;8.872;2022-08-20T14:29:37;0.77;;;0.60;;
16310;SDS011;8264;48.510;8.872;2022-08-20T14:32:05;1.63;;;0.60;;
16310;SDS011;8264;48.510;8.872;2022-08-20T14:34:32;1.13;;;0.80;;
16310;SDS011;8264;48.510;8.872;2022-08-20T14:37:07;0.80;;;0.60;;
16310;SDS011;8264;48.510;8.872;2022-08-20T14:39:35;1.87;;;1.07;;
16310;SDS011;8264;48.510;8.872;2022-08-20T14:42:01;1.23;;;0.70;;
16310;SDS011;8264;48.510;8.872;2022-08-20T14:44:28;0.80;;;0.80;;
16310;SDS011;8264;48.510;8.872;2022-08-20T14:46:56;0.93;;;0.77;;
16310;SDS011;8264;48.510;8.872;2022-08-20T14:49:23;1.00;;;0.73;;
16310;SDS011;8264;48.510;8.872;2022-08-20T14:51:49;0.80;;;0.80;;
16310;SDS011;8264;48.510;8.872;2022-08-20T14:54:16;2.33;;;1.00;;
16310;SDS011;8264;48.510;8.872;2022-08-20T14:56:42;1.47;;;0.70;;
16310;SDS011;8264;48.510;8.872;2022-08-20T14:59:08;1.40;;;0.87;;
16310;SDS011;8264;48.510;8.872;2022-08-20T15:01:35;2.27;;;1.10;;
16310;SDS011;8264;48.510;8.872;2022-08-20T15:04:03;0.50;;;0.50;;
16310;SDS011;8264;48.510;8.872;2022-08-20T15:06:29;1.27;;;0.97;;